sensor_id;sensor_type;location;lat;lon;timestamp;P1;durP1;ratioP1;P2;durP2;ratioP2
81039;SDS011;70525;53.224;8.782;2023-06-10T00:01:09;6.00;;;3.08;;
81039;SDS011;70525;53.224;8.782;2023-06-10T00:03:36;5.70;;;2.70;;
81039;SDS011;70525;53.224;8.782;2023-06-10T00:06:03;8.10;;;2.58;;
81039;SDS011;70525;53.224;8.782;2023-06-10T00:08:31;6.75;;;2.55;;
81039;SDS011;70525;53.224;8.782;2023-06-10T00:10:59;6.78;;;2.80;;
81039;SDS011;70525;53.224;8.782;2023-06-10T00:13:26;6.90;;;2.70;;
81039;SDS011;70525;53.224;8.782;2023-06-10T00:15:53;9.25;;;3.53;;
81039;SDS011;70525;53.224;8.782;2023-06-10T00:18:19;9.15;;;2.85;;
81039;SDS011;70525;53.224;8.782;2023-06-10T00:20:48;6.70;;;2.83;;
81039;SDS011;70525;53.224;8.782;2023-06-10T00:23:19;6.90;;;2.95;;
81039;SDS011;70525;53.224;8.782;2023-06-10T00:25:45;7.68;;;3.15;;
81039;SDS011;70525;53.224;8.782;2023-06-10T00:28:12;10.10;;;3.20;;
81039;SDS011;70525;53.224;8.782;2023-06-10T00:30:39;6.65;;;3.00;;
81039;SDS011;70525;53.224;8.782;2023-06-10T00:33:06;6.22;;;3.28;;
81039;SDS011;70525;53.224;8.782;2023-06-10T00:35:32;5.90;;;2.78;;
81039;SDS011;70525;53.224;8.782;2023-06-10T00:37:59;9.82;;;3.33;;
81039;SDS011;70525;53.224;8.782;2023-06-10T00:40:25;7.47;;;2.80;;
81039;SDS011;70525;53.224;8.782;2023-06-10T00:42:52;6.35;;;3.05;;
81039;SDS011;70525;53.224;8.782;2023-06-10T00:45:18;6.38;;;2.83;;
81039;SDS011;70525;53.224;8.782;2023-06-10T00:47:45;8.52;;;3.42;;
81039;SDS011;70525;53.224;8.782;2023-06-10T00:50:11;8.00;;;3.10;;
81039;SDS011;70525;53.224;8.782;2023-06-10T00:52:38;7.43;;;2.88;;
81039;SDS011;70525;53.224;8.782;2023-06-10T00:55:05;8.07;;;3.40;;
81039;SDS011;70525;53.224;8.782;2023-06-10T00:57:34;7.72;;;3.10;;
81039;SDS011;70525;53.224;8.782;2023-06-10T01:00:00;9.40;;;3.22;;
81039;SDS011;70525;53.224;8.782;2023-06-10T01:02:27;9.38;;;4.30;;
81039;SDS011;70525;53.224;8.782;2023-06-10T01:04:54;10.85;;;3.85;;
81039;SDS011;70525;53.224;8.782;2023-06-10T01:07:23;8.23;;;3.30;;
81039;SDS011;70525;53.224;8.782;2023-06-10T01:12:46;8.43;;;3.75;;
81039;SDS011;70525;53.224;8.782;2023-06-10T01:15:19;8.18;;;3.67;;
81039;SDS011;70525;53.224;8.782;2023-06-10T01:17:54;7.32;;;3.42;;
81039;SDS011;70525;53.224;8.782;2023-06-10T01:20:24;8.45;;;3.70;;
81039;SDS011;70525;53.224;8.782;2023-06-10T01:22:53;9.15;;;4.05;;
81039;SDS011;70525;53.224;8.782;2023-06-10T01:25:21;9.63;;;4.32;;
81039;SDS011;70525;53.224;8.782;2023-06-10T01:28:40;6.43;;;3.30;;
81039;SDS011;70525;53.224;8.782;2023-06-10T01:33:41;6.70;;;3.65;;
81039;SDS011;70525;53.224;8.782;2023-06-10T01:36:09;9.27;;;3.67;;
81039;SDS011;70525;53.224;8.782;2023-06-10T01:38:45;7.13;;;4.28;;
81039;SDS011;70525;53.224;8.782;2023-06-10T01:41:13;11.50;;;3.95;;
81039;SDS011;70525;53.224;8.782;2023-06-10T01:43:43;7.63;;;3.85;;
81039;SDS011;70525;53.224;8.782;2023-06-10T01:46:10;8.85;;;3.85;;
81039;SDS011;70525;53.224;8.782;2023-06-10T01:48:37;8.77;;;3.90;;
81039;SDS011;70525;53.224;8.782;2023-06-10T01:51:04;8.10;;;3.72;;
81039;SDS011;70525;53.224;8.782;2023-06-10T01:53:31;6.95;;;3.75;;
81039;SDS011;70525;53.224;8.782;2023-06-10T01:55:57;9.57;;;4.40;;
81039;SDS011;70525;53.224;8.782;2023-06-10T01:58:24;8.60;;;3.75;;
81039;SDS011;70525;53.224;8.782;2023-06-10T02:00:51;9.88;;;3.50;;
81039;SDS011;70525;53.224;8.782;2023-06-10T02:03:17;10.98;;;3.90;;
81039;SDS011;70525;53.224;8.782;2023-06-10T02:05:44;16.05;;;4.30;;
81039;SDS011;70525;53.224;8.782;2023-06-10T02:08:11;10.23;;;3.88;;
81039;SDS011;70525;53.224;8.782;2023-06-10T02:10:38;9.95;;;3.63;;
81039;SDS011;70525;53.224;8.782;2023-06-10T02:13:04;10.80;;;5.13;;
81039;SDS011;70525;53.224;8.782;2023-06-10T02:15:31;12.73;;;5.25;;
81039;SDS011;70525;53.224;8.782;2023-06-10T02:17:57;12.35;;;4.65;;
81039;SDS011;70525;53.224;8.782;2023-06-10T02:20:25;9.98;;;3.70;;
81039;SDS011;70525;53.224;8.782;2023-06-10T02:22:51;10.23;;;3.83;;
81039;SDS011;70525;53.224;8.782;2023-06-10T02:25:18;9.93;;;4.28;;
81039;SDS011;70525;53.224;8.782;2023-06-10T02:27:44;8.45;;;3.90;;
81039;SDS011;70525;53.224;8.782;2023-06-10T02:30:11;10.02;;;4.25;;
81039;SDS011;70525;53.224;8.782;2023-06-10T02:32:38;8.00;;;4.47;;
81039;SDS011;70525;53.224;8.782;2023-06-10T02:35:05;9.65;;;4.53;;
81039;SDS011;70525;53.224;8.782;2023-06-10T02:37:32;16.20;;;4.90;;
81039;SDS011;70525;53.224;8.782;2023-06-10T02:39:59;8.07;;;3.83;;
81039;SDS011;70525;53.224;8.782;2023-06-10T02:42:25;10.57;;;4.25;;
81039;SDS011;70525;53.224;8.782;2023-06-10T02:44:52;8.65;;;4.10;;
81039;SDS011;70525;53.224;8.782;2023-06-10T02:47:18;7.45;;;3.92;;
81039;SDS011;70525;53.224;8.782;2023-06-10T02:49:45;9.32;;;4.15;;
81039;SDS011;70525;53.224;8.782;2023-06-10T02:52:11;9.20;;;4.72;;
81039;SDS011;70525;53.224;8.782;2023-06-10T02:54:38;7.60;;;4.40;;
81039;SDS011;70525;53.224;8.782;2023-06-10T02:57:05;8.80;;;4.13;;
81039;SDS011;70525;53.224;8.782;2023-06-10T02:59:32;8.85;;;4.10;;
81039;SDS011;70525;53.224;8.782;2023-06-10T03:01:58;9.73;;;4.55;;
81039;SDS011;70525;53.224;8.782;2023-06-10T03:04:27;9.55;;;4.45;;
81039;SDS011;70525;53.224;8.782;2023-06-10T03:06:55;9.50;;;3.83;;
81039;SDS011;70525;53.224;8.782;2023-06-10T03:09:21;9.23;;;3.78;;
81039;SDS011;70525;53.224;8.782;2023-06-10T03:11:48;6.63;;;4.00;;
81039;SDS011;70525;53.224;8.782;2023-06-10T03:14:17;8.82;;;4.43;;
81039;SDS011;70525;53.224;8.782;2023-06-10T03:16:44;7.05;;;4.03;;
81039;SDS011;70525;53.224;8.782;2023-06-10T03:19:11;7.43;;;4.13;;
81039;SDS011;70525;53.224;8.782;2023-06-10T03:21:38;8.57;;;4.10;;
81039;SDS011;70525;53.224;8.782;2023-06-10T03:24:05;7.57;;;4.13;;
81039;SDS011;70525;53.224;8.782;2023-06-10T03:26:32;8.35;;;4.20;;
81039;SDS011;70525;53.224;8.782;2023-06-10T03:28:58;8.00;;;4.18;;
81039;SDS011;70525;53.224;8.782;2023-06-10T03:31:25;8.60;;;4.32;;
81039;SDS011;70525;53.224;8.782;2023-06-10T03:33:52;9.23;;;4.28;;
81039;SDS011;70525;53.224;8.782;2023-06-10T03:36:18;11.10;;;4.32;;
81039;SDS011;70525;53.224;8.782;2023-06-10T03:38:44;7.43;;;4.10;;
81039;SDS011;70525;53.224;8.782;2023-06-10T03:41:11;11.73;;;4.40;;
81039;SDS011;70525;53.224;8.782;2023-06-10T03:43:37;9.68;;;4.28;;
81039;SDS011;70525;53.224;8.782;2023-06-10T03:46:06;8.65;;;4.70;;
81039;SDS011;70525;53.224;8.782;2023-06-10T03:48:33;8.30;;;4.47;;
81039;SDS011;70525;53.224;8.782;2023-06-10T03:51:00;9.98;;;4.88;;
81039;SDS011;70525;53.224;8.782;2023-06-10T03:53:27;8.88;;;4.63;;
81039;SDS011;70525;53.224;8.782;2023-06-10T03:55:53;8.93;;;4.10;;
81039;SDS011;70525;53.224;8.782;2023-06-10T03:58:20;13.60;;;4.47;;
81039;SDS011;70525;53.224;8.782;2023-06-10T04:00:46;7.70;;;5.28;;
81039;SDS011;70525;53.224;8.782;2023-06-10T04:03:13;8.93;;;4.05;;
81039;SDS011;70525;53.224;8.782;2023-06-10T04:05:42;7.07;;;4.40;;
81039;SDS011;70525;53.224;8.782;2023-06-10T04:08:09;7.28;;;3.70;;
81039;SDS011;70525;53.224;8.782;2023-06-10T04:10:35;6.97;;;4.20;;
81039;SDS011;70525;53.224;8.782;2023-06-10T04:13:02;5.68;;;3.88;;
81039;SDS011;70525;53.224;8.782;2023-06-10T04:15:29;7.30;;;3.75;;
81039;SDS011;70525;53.224;8.782;2023-06-10T04:17:58;7.82;;;4.32;;
81039;SDS011;70525;53.224;8.782;2023-06-10T04:20:26;12.13;;;4.78;;
81039;SDS011;70525;53.224;8.782;2023-06-10T04:22:53;7.32;;;3.10;;
81039;SDS011;70525;53.224;8.782;2023-06-10T04:25:19;7.57;;;3.85;;
81039;SDS011;70525;53.224;8.782;2023-06-10T04:27:46;9.10;;;3.50;;
81039;SDS011;70525;53.224;8.782;2023-06-10T04:30:13;7.68;;;3.63;;
81039;SDS011;70525;53.224;8.782;2023-06-10T04:32:40;7.32;;;3.80;;
81039;SDS011;70525;53.224;8.782;2023-06-10T04:35:06;8.52;;;4.25;;
81039;SDS011;70525;53.224;8.782;2023-06-10T04:37:34;10.13;;;3.88;;
81039;SDS011;70525;53.224;8.782;2023-06-10T04:40:00;5.65;;;3.13;;
81039;SDS011;70525;53.224;8.782;2023-06-10T04:42:27;9.15;;;4.07;;
81039;SDS011;70525;53.224;8.782;2023-06-10T04:44:54;8.23;;;4.20;;
81039;SDS011;70525;53.224;8.782;2023-06-10T04:47:20;10.65;;;4.47;;
81039;SDS011;70525;53.224;8.782;2023-06-10T04:49:47;7.25;;;4.72;;
81039;SDS011;70525;53.224;8.782;2023-06-10T04:52:14;9.07;;;3.97;;
81039;SDS011;70525;53.224;8.782;2023-06-10T04:54:44;8.27;;;3.97;;
81039;SDS011;70525;53.224;8.782;2023-06-10T04:57:10;7.65;;;3.95;;
81039;SDS011;70525;53.224;8.782;2023-06-10T04:59:37;7.97;;;3.50;;
81039;SDS011;70525;53.224;8.782;2023-06-10T05:02:04;6.47;;;3.92;;
81039;SDS011;70525;53.224;8.782;2023-06-10T05:04:31;7.38;;;4.28;;
81039;SDS011;70525;53.224;8.782;2023-06-10T05:06:58;11.88;;;4.18;;
81039;SDS011;70525;53.224;8.782;2023-06-10T05:09:24;7.38;;;3.58;;
81039;SDS011;70525;53.224;8.782;2023-06-10T05:11:52;9.27;;;3.63;;
81039;SDS011;70525;53.224;8.782;2023-06-10T05:14:20;8.07;;;3.63;;
81039;SDS011;70525;53.224;8.782;2023-06-10T05:16:47;5.70;;;3.67;;
81039;SDS011;70525;53.224;8.782;2023-06-10T05:19:14;9.10;;;3.85;;
81039;SDS011;70525;53.224;8.782;2023-06-10T05:21:42;7.00;;;3.63;;
81039;SDS011;70525;53.224;8.782;2023-06-10T05:24:10;7.95;;;3.50;;
81039;SDS011;70525;53.224;8.782;2023-06-10T05:26:36;6.43;;;3.15;;
81039;SDS011;70525;53.224;8.782;2023-06-10T05:29:04;8.02;;;3.45;;
81039;SDS011;70525;53.224;8.782;2023-06-10T05:31:31;4.68;;;2.88;;
81039;SDS011;70525;53.224;8.782;2023-06-10T05:33:58;6.68;;;3.13;;
81039;SDS011;70525;53.224;8.782;2023-06-10T05:36:24;5.72;;;3.10;;
81039;SDS011;70525;53.224;8.782;2023-06-10T05:38:54;6.65;;;2.80;;
81039;SDS011;70525;53.224;8.782;2023-06-10T05:41:20;5.03;;;3.13;;
81039;SDS011;70525;53.224;8.782;2023-06-10T05:43:48;12.98;;;3.50;;
81039;SDS011;70525;53.224;8.782;2023-06-10T05:46:14;6.55;;;3.38;;
81039;SDS011;70525;53.224;8.782;2023-06-10T05:48:41;6.93;;;3.10;;
81039;SDS011;70525;53.224;8.782;2023-06-10T05:51:08;5.28;;;3.13;;
81039;SDS011;70525;53.224;8.782;2023-06-10T05:53:34;4.18;;;2.60;;
81039;SDS011;70525;53.224;8.782;2023-06-10T05:56:01;6.68;;;3.25;;
81039;SDS011;70525;53.224;8.782;2023-06-10T05:58:27;4.60;;;2.95;;
81039;SDS011;70525;53.224;8.782;2023-06-10T06:00:54;6.13;;;2.83;;
81039;SDS011;70525;53.224;8.782;2023-06-10T06:03:20;9.10;;;3.10;;
81039;SDS011;70525;53.224;8.782;2023-06-10T06:05:47;5.65;;;3.15;;
81039;SDS011;70525;53.224;8.782;2023-06-10T06:08:13;5.63;;;2.70;;
81039;SDS011;70525;53.224;8.782;2023-06-10T06:10:44;5.10;;;2.60;;
81039;SDS011;70525;53.224;8.782;2023-06-10T06:13:11;5.00;;;3.47;;
81039;SDS011;70525;53.224;8.782;2023-06-10T06:15:37;6.82;;;2.90;;
81039;SDS011;70525;53.224;8.782;2023-06-10T06:18:04;8.20;;;3.10;;
81039;SDS011;70525;53.224;8.782;2023-06-10T06:20:30;8.70;;;3.60;;
81039;SDS011;70525;53.224;8.782;2023-06-10T06:22:57;4.57;;;2.80;;
81039;SDS011;70525;53.224;8.782;2023-06-10T06:25:23;6.35;;;2.65;;
81039;SDS011;70525;53.224;8.782;2023-06-10T06:27:50;7.20;;;2.83;;
81039;SDS011;70525;53.224;8.782;2023-06-10T06:30:16;5.00;;;3.10;;
81039;SDS011;70525;53.224;8.782;2023-06-10T06:32:43;5.97;;;3.13;;
81039;SDS011;70525;53.224;8.782;2023-06-10T06:35:10;4.97;;;2.97;;
81039;SDS011;70525;53.224;8.782;2023-06-10T06:37:36;6.75;;;2.85;;
81039;SDS011;70525;53.224;8.782;2023-06-10T06:40:03;8.48;;;3.30;;
81039;SDS011;70525;53.224;8.782;2023-06-10T06:42:30;6.13;;;3.40;;
81039;SDS011;70525;53.224;8.782;2023-06-10T06:44:56;6.85;;;3.38;;
81039;SDS011;70525;53.224;8.782;2023-06-10T06:47:23;8.48;;;3.00;;
81039;SDS011;70525;53.224;8.782;2023-06-10T06:49:50;7.80;;;2.50;;
81039;SDS011;70525;53.224;8.782;2023-06-10T06:52:16;7.93;;;3.10;;
81039;SDS011;70525;53.224;8.782;2023-06-10T06:54:43;5.85;;;3.08;;
81039;SDS011;70525;53.224;8.782;2023-06-10T06:57:09;7.15;;;2.80;;
81039;SDS011;70525;53.224;8.782;2023-06-10T06:59:36;8.32;;;3.00;;
81039;SDS011;70525;53.224;8.782;2023-06-10T07:02:03;8.63;;;3.13;;
81039;SDS011;70525;53.224;8.782;2023-06-10T07:04:29;7.57;;;2.60;;
81039;SDS011;70525;53.224;8.782;2023-06-10T07:06:56;4.57;;;2.45;;
81039;SDS011;70525;53.224;8.782;2023-06-10T07:09:23;5.68;;;2.97;;
81039;SDS011;70525;53.224;8.782;2023-06-10T07:11:49;6.93;;;2.70;;
81039;SDS011;70525;53.224;8.782;2023-06-10T07:14:16;5.93;;;2.90;;
81039;SDS011;70525;53.224;8.782;2023-06-10T07:16:42;7.28;;;3.65;;
81039;SDS011;70525;53.224;8.782;2023-06-10T07:19:11;5.13;;;3.00;;
81039;SDS011;70525;53.224;8.782;2023-06-10T07:21:38;8.15;;;2.80;;
81039;SDS011;70525;53.224;8.782;2023-06-10T07:24:04;4.05;;;2.75;;
81039;SDS011;70525;53.224;8.782;2023-06-10T07:26:31;6.25;;;3.42;;
81039;SDS011;70525;53.224;8.782;2023-06-10T07:28:57;10.57;;;4.00;;
81039;SDS011;70525;53.224;8.782;2023-06-10T07:31:24;5.95;;;2.95;;
81039;SDS011;70525;53.224;8.782;2023-06-10T07:33:51;5.95;;;2.88;;
81039;SDS011;70525;53.224;8.782;2023-06-10T07:36:18;5.45;;;3.00;;
81039;SDS011;70525;53.224;8.782;2023-06-10T07:38:44;7.30;;;3.15;;
81039;SDS011;70525;53.224;8.782;2023-06-10T07:41:11;29.67;;;5.13;;
81039;SDS011;70525;53.224;8.782;2023-06-10T07:43:37;10.05;;;3.72;;
81039;SDS011;70525;53.224;8.782;2023-06-10T07:46:04;5.47;;;3.50;;
81039;SDS011;70525;53.224;8.782;2023-06-10T07:48:31;7.85;;;3.85;;
81039;SDS011;70525;53.224;8.782;2023-06-10T07:50:58;5.13;;;3.92;;
81039;SDS011;70525;53.224;8.782;2023-06-10T07:53:24;7.88;;;3.90;;
81039;SDS011;70525;53.224;8.782;2023-06-10T07:55:51;7.63;;;4.90;;
81039;SDS011;70525;53.224;8.782;2023-06-10T07:58:17;8.88;;;5.00;;
81039;SDS011;70525;53.224;8.782;2023-06-10T08:00:44;9.70;;;5.10;;
81039;SDS011;70525;53.224;8.782;2023-06-10T08:03:10;11.35;;;4.88;;
81039;SDS011;70525;53.224;8.782;2023-06-10T08:05:39;10.20;;;4.35;;
81039;SDS011;70525;53.224;8.782;2023-06-10T08:08:05;9.15;;;4.93;;
81039;SDS011;70525;53.224;8.782;2023-06-10T08:10:32;7.13;;;4.38;;
81039;SDS011;70525;53.224;8.782;2023-06-10T08:12:59;7.70;;;4.30;;
81039;SDS011;70525;53.224;8.782;2023-06-10T08:15:25;10.40;;;4.43;;
81039;SDS011;70525;53.224;8.782;2023-06-10T08:17:52;8.43;;;4.40;;
81039;SDS011;70525;53.224;8.782;2023-06-10T08:20:19;6.95;;;3.78;;
81039;SDS011;70525;53.224;8.782;2023-06-10T08:22:45;6.90;;;3.78;;
81039;SDS011;70525;53.224;8.782;2023-06-10T08:25:11;11.13;;;4.32;;
81039;SDS011;70525;53.224;8.782;2023-06-10T08:27:38;12.02;;;4.35;;
81039;SDS011;70525;53.224;8.782;2023-06-10T08:30:05;8.38;;;4.72;;
81039;SDS011;70525;53.224;8.782;2023-06-10T08:32:32;8.88;;;4.43;;
81039;SDS011;70525;53.224;8.782;2023-06-10T08:34:58;9.95;;;5.40;;
81039;SDS011;70525;53.224;8.782;2023-06-10T08:37:25;8.02;;;4.60;;
81039;SDS011;70525;53.224;8.782;2023-06-10T08:39:52;7.57;;;4.22;;
81039;SDS011;70525;53.224;8.782;2023-06-10T08:42:26;8.27;;;4.18;;
81039;SDS011;70525;53.224;8.782;2023-06-10T08:44:55;7.07;;;4.43;;
81039;SDS011;70525;53.224;8.782;2023-06-10T08:47:23;6.93;;;3.67;;
81039;SDS011;70525;53.224;8.782;2023-06-10T08:49:50;8.00;;;4.00;;
81039;SDS011;70525;53.224;8.782;2023-06-10T08:52:19;6.65;;;3.72;;
81039;SDS011;70525;53.224;8.782;2023-06-10T08:54:54;6.78;;;4.18;;
81039;SDS011;70525;53.224;8.782;2023-06-10T08:57:23;7.32;;;4.15;;
81039;SDS011;70525;53.224;8.782;2023-06-10T08:59:50;6.53;;;4.40;;
81039;SDS011;70525;53.224;8.782;2023-06-10T09:02:18;9.30;;;4.22;;
81039;SDS011;70525;53.224;8.782;2023-06-10T09:04:46;7.68;;;4.05;;
81039;SDS011;70525;53.224;8.782;2023-06-10T09:07:15;7.20;;;3.90;;
81039;SDS011;70525;53.224;8.782;2023-06-10T09:09:42;9.57;;;3.72;;
81039;SDS011;70525;53.224;8.782;2023-06-10T09:12:09;8.15;;;3.95;;
81039;SDS011;70525;53.224;8.782;2023-06-10T09:14:36;7.80;;;3.58;;
81039;SDS011;70525;53.224;8.782;2023-06-10T09:17:03;7.05;;;4.07;;
81039;SDS011;70525;53.224;8.782;2023-06-10T09:19:30;5.88;;;3.17;;
81039;SDS011;70525;53.224;8.782;2023-06-10T09:21:57;6.20;;;3.50;;
81039;SDS011;70525;53.224;8.782;2023-06-10T09:24:24;7.20;;;3.60;;
81039;SDS011;70525;53.224;8.782;2023-06-10T09:27:01;5.07;;;3.08;;
81039;SDS011;70525;53.224;8.782;2023-06-10T09:29:29;5.70;;;3.30;;
81039;SDS011;70525;53.224;8.782;2023-06-10T09:31:55;5.75;;;3.42;;
81039;SDS011;70525;53.224;8.782;2023-06-10T09:34:24;11.70;;;3.30;;
81039;SDS011;70525;53.224;8.782;2023-06-10T09:36:51;6.70;;;3.03;;
81039;SDS011;70525;53.224;8.782;2023-06-10T09:39:19;10.10;;;3.50;;
81039;SDS011;70525;53.224;8.782;2023-06-10T09:41:46;8.43;;;3.75;;
81039;SDS011;70525;53.224;8.782;2023-06-10T09:44:13;4.40;;;3.00;;
81039;SDS011;70525;53.224;8.782;2023-06-10T09:46:48;5.32;;;2.95;;
81039;SDS011;70525;53.224;8.782;2023-06-10T09:49:16;17.05;;;4.03;;
81039;SDS011;70525;53.224;8.782;2023-06-10T09:51:50;5.97;;;2.50;;
81039;SDS011;70525;53.224;8.782;2023-06-10T09:54:18;13.20;;;3.45;;
81039;SDS011;70525;53.224;8.782;2023-06-10T09:56:48;6.13;;;2.80;;
81039;SDS011;70525;53.224;8.782;2023-06-10T09:59:16;5.90;;;2.83;;
81039;SDS011;70525;53.224;8.782;2023-06-10T10:01:42;4.10;;;2.53;;
81039;SDS011;70525;53.224;8.782;2023-06-10T10:04:09;6.18;;;2.90;;
81039;SDS011;70525;53.224;8.782;2023-06-10T10:06:35;10.80;;;2.63;;
81039;SDS011;70525;53.224;8.782;2023-06-10T10:09:02;7.15;;;3.08;;
81039;SDS011;70525;53.224;8.782;2023-06-10T10:11:30;5.47;;;2.63;;
81039;SDS011;70525;53.224;8.782;2023-06-10T10:13:57;5.97;;;2.15;;
81039;SDS011;70525;53.224;8.782;2023-06-10T10:16:31;5.18;;;2.88;;
81039;SDS011;70525;53.224;8.782;2023-06-10T10:19:04;5.85;;;2.90;;
81039;SDS011;70525;53.224;8.782;2023-06-10T10:21:35;5.63;;;2.80;;
81039;SDS011;70525;53.224;8.782;2023-06-10T10:24:18;5.95;;;2.50;;
81039;SDS011;70525;53.224;8.782;2023-06-10T10:26:47;8.73;;;2.88;;
81039;SDS011;70525;53.224;8.782;2023-06-10T10:31:51;6.45;;;2.35;;
81039;SDS011;70525;53.224;8.782;2023-06-10T10:34:22;4.38;;;1.98;;
81039;SDS011;70525;53.224;8.782;2023-06-10T10:36:52;6.63;;;2.50;;
81039;SDS011;70525;53.224;8.782;2023-06-10T10:39:18;4.78;;;1.95;;
81039;SDS011;70525;53.224;8.782;2023-06-10T10:41:45;5.20;;;2.20;;
81039;SDS011;70525;53.224;8.782;2023-06-10T10:44:13;5.03;;;2.30;;
81039;SDS011;70525;53.224;8.782;2023-06-10T10:46:43;5.78;;;2.25;;
81039;SDS011;70525;53.224;8.782;2023-06-10T10:49:11;3.17;;;1.70;;
81039;SDS011;70525;53.224;8.782;2023-06-10T10:51:53;5.45;;;2.10;;
81039;SDS011;70525;53.224;8.782;2023-06-10T10:57:10;4.85;;;2.25;;
81039;SDS011;70525;53.224;8.782;2023-06-10T10:59:44;4.65;;;2.50;;
81039;SDS011;70525;53.224;8.782;2023-06-10T11:02:18;4.47;;;1.80;;
81039;SDS011;70525;53.224;8.782;2023-06-10T11:04:46;4.93;;;2.05;;
81039;SDS011;70525;53.224;8.782;2023-06-10T11:07:13;3.83;;;1.90;;
81039;SDS011;70525;53.224;8.782;2023-06-10T11:10:29;3.88;;;1.85;;
81039;SDS011;70525;53.224;8.782;2023-06-10T11:15:13;3.25;;;1.70;;
81039;SDS011;70525;53.224;8.782;2023-06-10T11:23:10;7.43;;;1.92;;
81039;SDS011;70525;53.224;8.782;2023-06-10T11:25:40;4.03;;;1.65;;
81039;SDS011;70525;53.224;8.782;2023-06-10T11:28:19;5.93;;;2.03;;
81039;SDS011;70525;53.224;8.782;2023-06-10T11:30:46;4.85;;;2.08;;
81039;SDS011;70525;53.224;8.782;2023-06-10T11:33:16;15.75;;;2.80;;
81039;SDS011;70525;53.224;8.782;2023-06-10T11:35:43;6.47;;;1.75;;
81039;SDS011;70525;53.224;8.782;2023-06-10T11:38:10;3.03;;;2.03;;
81039;SDS011;70525;53.224;8.782;2023-06-10T11:40:36;4.35;;;1.52;;
81039;SDS011;70525;53.224;8.782;2023-06-10T11:43:03;5.65;;;1.80;;
81039;SDS011;70525;53.224;8.782;2023-06-10T11:45:30;4.18;;;1.85;;
81039;SDS011;70525;53.224;8.782;2023-06-10T11:47:57;6.55;;;2.28;;
81039;SDS011;70525;53.224;8.782;2023-06-10T11:50:29;4.97;;;1.98;;
81039;SDS011;70525;53.224;8.782;2023-06-10T11:52:58;8.60;;;2.10;;
81039;SDS011;70525;53.224;8.782;2023-06-10T11:55:25;8.35;;;1.85;;
81039;SDS011;70525;53.224;8.782;2023-06-10T11:58:04;6.80;;;1.90;;
81039;SDS011;70525;53.224;8.782;2023-06-10T12:00:31;6.78;;;2.20;;
81039;SDS011;70525;53.224;8.782;2023-06-10T12:02:57;6.75;;;1.98;;
81039;SDS011;70525;53.224;8.782;2023-06-10T12:05:24;8.13;;;2.22;;
81039;SDS011;70525;53.224;8.782;2023-06-10T12:08:07;7.50;;;2.00;;
81039;SDS011;70525;53.224;8.782;2023-06-10T12:10:38;8.30;;;2.53;;
81039;SDS011;70525;53.224;8.782;2023-06-10T12:13:06;13.43;;;2.80;;
81039;SDS011;70525;53.224;8.782;2023-06-10T12:15:32;5.60;;;1.95;;
81039;SDS011;70525;53.224;8.782;2023-06-10T12:17:59;6.10;;;2.00;;
81039;SDS011;70525;53.224;8.782;2023-06-10T12:20:26;5.88;;;1.77;;
81039;SDS011;70525;53.224;8.782;2023-06-10T12:22:54;3.70;;;2.17;;
81039;SDS011;70525;53.224;8.782;2023-06-10T12:25:24;3.97;;;2.00;;
81039;SDS011;70525;53.224;8.782;2023-06-10T12:27:53;4.25;;;2.22;;
81039;SDS011;70525;53.224;8.782;2023-06-10T12:30:24;3.88;;;1.90;;
81039;SDS011;70525;53.224;8.782;2023-06-10T12:32:52;7.05;;;2.20;;
81039;SDS011;70525;53.224;8.782;2023-06-10T12:35:20;5.93;;;2.28;;
81039;SDS011;70525;53.224;8.782;2023-06-10T12:37:58;2.72;;;1.83;;
81039;SDS011;70525;53.224;8.782;2023-06-10T12:40:31;4.00;;;1.80;;
81039;SDS011;70525;53.224;8.782;2023-06-10T12:43:02;5.38;;;2.10;;
81039;SDS011;70525;53.224;8.782;2023-06-10T12:45:29;4.43;;;2.20;;
81039;SDS011;70525;53.224;8.782;2023-06-10T12:48:06;3.13;;;2.10;;
81039;SDS011;70525;53.224;8.782;2023-06-10T12:50:35;3.55;;;1.75;;
81039;SDS011;70525;53.224;8.782;2023-06-10T12:53:05;4.10;;;2.05;;
81039;SDS011;70525;53.224;8.782;2023-06-10T12:55:32;6.07;;;2.33;;
81039;SDS011;70525;53.224;8.782;2023-06-10T12:57:59;4.38;;;2.50;;
81039;SDS011;70525;53.224;8.782;2023-06-10T13:00:27;7.53;;;2.25;;
81039;SDS011;70525;53.224;8.782;2023-06-10T13:05:23;2.60;;;1.80;;
81039;SDS011;70525;53.224;8.782;2023-06-10T13:07:49;4.43;;;2.00;;
81039;SDS011;70525;53.224;8.782;2023-06-10T13:10:16;4.18;;;2.03;;
81039;SDS011;70525;53.224;8.782;2023-06-10T13:12:43;3.63;;;2.22;;
81039;SDS011;70525;53.224;8.782;2023-06-10T13:15:14;5.28;;;2.15;;
81039;SDS011;70525;53.224;8.782;2023-06-10T13:17:43;4.03;;;1.88;;
81039;SDS011;70525;53.224;8.782;2023-06-10T13:20:12;4.03;;;2.20;;
81039;SDS011;70525;53.224;8.782;2023-06-10T13:22:38;3.40;;;2.08;;
81039;SDS011;70525;53.224;8.782;2023-06-10T13:25:05;3.90;;;2.60;;
81039;SDS011;70525;53.224;8.782;2023-06-10T13:27:38;5.60;;;2.83;;
81039;SDS011;70525;53.224;8.782;2023-06-10T13:30:09;5.07;;;2.20;;
81039;SDS011;70525;53.224;8.782;2023-06-10T13:32:36;5.03;;;2.40;;
81039;SDS011;70525;53.224;8.782;2023-06-10T13:35:03;4.47;;;2.53;;
81039;SDS011;70525;53.224;8.782;2023-06-10T13:37:30;2.95;;;2.08;;
81039;SDS011;70525;53.224;8.782;2023-06-10T13:39:57;5.03;;;2.40;;
81039;SDS011;70525;53.224;8.782;2023-06-10T13:42:23;5.53;;;2.30;;
81039;SDS011;70525;53.224;8.782;2023-06-10T13:44:52;4.20;;;2.50;;
81039;SDS011;70525;53.224;8.782;2023-06-10T13:47:19;4.47;;;2.60;;
81039;SDS011;70525;53.224;8.782;2023-06-10T13:49:45;5.65;;;2.60;;
81039;SDS011;70525;53.224;8.782;2023-06-10T13:52:12;7.13;;;2.42;;
81039;SDS011;70525;53.224;8.782;2023-06-10T13:54:39;7.65;;;2.58;;
81039;SDS011;70525;53.224;8.782;2023-06-10T13:57:05;3.92;;;2.42;;
81039;SDS011;70525;53.224;8.782;2023-06-10T13:59:32;5.50;;;2.92;;
81039;SDS011;70525;53.224;8.782;2023-06-10T14:01:59;4.97;;;2.35;;
81039;SDS011;70525;53.224;8.782;2023-06-10T14:04:26;4.38;;;2.97;;
81039;SDS011;70525;53.224;8.782;2023-06-10T14:06:53;4.15;;;2.80;;
81039;SDS011;70525;53.224;8.782;2023-06-10T14:09:19;5.40;;;3.13;;
81039;SDS011;70525;53.224;8.782;2023-06-10T14:11:46;6.45;;;2.60;;
81039;SDS011;70525;53.224;8.782;2023-06-10T14:14:13;4.18;;;2.83;;
81039;SDS011;70525;53.224;8.782;2023-06-10T14:16:41;3.78;;;2.80;;
81039;SDS011;70525;53.224;8.782;2023-06-10T14:19:09;6.30;;;3.28;;
81039;SDS011;70525;53.224;8.782;2023-06-10T14:21:36;4.78;;;2.83;;
81039;SDS011;70525;53.224;8.782;2023-06-10T14:24:02;4.03;;;3.00;;
81039;SDS011;70525;53.224;8.782;2023-06-10T14:26:29;5.72;;;3.15;;
81039;SDS011;70525;53.224;8.782;2023-06-10T14:28:56;4.78;;;3.40;;
81039;SDS011;70525;53.224;8.782;2023-06-10T14:31:22;5.65;;;3.10;;
81039;SDS011;70525;53.224;8.782;2023-06-10T14:33:49;5.10;;;3.42;;
81039;SDS011;70525;53.224;8.782;2023-06-10T14:36:15;5.60;;;2.97;;
81039;SDS011;70525;53.224;8.782;2023-06-10T14:38:42;5.18;;;3.38;;
81039;SDS011;70525;53.224;8.782;2023-06-10T14:41:08;4.65;;;2.75;;
81039;SDS011;70525;53.224;8.782;2023-06-10T14:43:35;6.28;;;3.15;;
81039;SDS011;70525;53.224;8.782;2023-06-10T14:46:01;8.95;;;3.30;;
81039;SDS011;70525;53.224;8.782;2023-06-10T14:48:28;8.07;;;3.33;;
81039;SDS011;70525;53.224;8.782;2023-06-10T14:50:54;4.20;;;3.15;;
81039;SDS011;70525;53.224;8.782;2023-06-10T14:53:21;7.13;;;3.10;;
81039;SDS011;70525;53.224;8.782;2023-06-10T14:55:48;6.05;;;2.95;;
81039;SDS011;70525;53.224;8.782;2023-06-10T14:58:14;5.00;;;3.40;;
81039;SDS011;70525;53.224;8.782;2023-06-10T15:00:41;5.85;;;3.53;;
81039;SDS011;70525;53.224;8.782;2023-06-10T15:03:08;6.30;;;3.80;;
81039;SDS011;70525;53.224;8.782;2023-06-10T15:05:34;4.18;;;3.72;;
81039;SDS011;70525;53.224;8.782;2023-06-10T15:08:03;5.10;;;3.63;;
81039;SDS011;70525;53.224;8.782;2023-06-10T15:10:30;7.25;;;3.20;;